EWG4EK LEPA-EDDL
Flight info
| Callsign | EWG4EK |
|---|---|
| Flight time | 1h 58m |
| Altitude | 36000 |
| Route | MEROS N853 LUMAS DCT MAXIR DCT LUSOL DCT BODRU DCT OKTET DCT IRMAR DCT KINES DCT VANAS DCT MOBLO DCT UBIMA DCT GILIR DCT PENDU DCT IXILU DCT EPL DCT ROUSY DCT DIK N853 ARCKY T853 NVO T857 BIKMU BIKMU1A |
| Aircraft | A320/M-SDE3FGHIRWY/LB1 |
Departure
| Time | 2026-05-07 13:04 |
|---|---|
| Airport | Palma de Mallorca Airport (LEPA) |
Arrival
| Time | 2026-05-07 15:02 |
|---|---|
| Airport | Düsseldorf Airport (EDDL) |
| Time | Latitude | Longitude | Altitude | Speed | Heading |
|---|---|---|---|---|---|
| 2026-05-07 12:33 | 39.55043 | 2.73536 | 39 ft | 0 kts | 164° |
| 2026-05-07 12:54 | 39.55055 | 2.73532 | 38 ft | 4 kts | 153° |
| 2026-05-07 12:54 | 39.55073 | 2.73511 | 37 ft | 4 kts | 108° |
| 2026-05-07 12:54 | 39.55075 | 2.73478 | 38 ft | 4 kts | 72° |
| 2026-05-07 12:54 | 39.55068 | 2.73459 | 37 ft | 0 kts | 59° |
| 2026-05-07 12:56 | 39.55069 | 2.73461 | 37 ft | 1 kts | 59° |
| 2026-05-07 12:57 | 39.55082 | 2.73488 | 35 ft | 6 kts | 59° |
| 2026-05-07 12:57 | 39.55109 | 2.73547 | 38 ft | 10 kts | 59° |
| 2026-05-07 12:57 | 39.55149 | 2.73631 | 38 ft | 12 kts | 59° |
| 2026-05-07 12:57 | 39.55178 | 2.73730 | 38 ft | 12 kts | 108° |
| 2026-05-07 12:58 | 39.55179 | 2.73835 | 38 ft | 12 kts | 97° |
| 2026-05-07 12:58 | 39.55109 | 2.73903 | 38 ft | 14 kts | 149° |
| 2026-05-07 12:58 | 39.55026 | 2.73969 | 38 ft | 15 kts | 149° |
| 2026-05-07 12:58 | 39.54935 | 2.74040 | 38 ft | 16 kts | 149° |
| 2026-05-07 12:59 | 39.54846 | 2.74109 | 38 ft | 12 kts | 149° |
| 2026-05-07 12:59 | 39.54777 | 2.74099 | 36 ft | 10 kts | 225° |
| 2026-05-07 12:59 | 39.54742 | 2.74028 | 37 ft | 9 kts | 238° |
| 2026-05-07 12:59 | 39.54709 | 2.73958 | 38 ft | 9 kts | 238° |
| 2026-05-07 13:00 | 39.54668 | 2.73871 | 38 ft | 14 kts | 238° |
| 2026-05-07 13:00 | 39.54613 | 2.73755 | 38 ft | 16 kts | 238° |
| 2026-05-07 13:00 | 39.54548 | 2.73617 | 38 ft | 19 kts | 238° |
| 2026-05-07 13:00 | 39.54481 | 2.73476 | 38 ft | 18 kts | 238° |
| 2026-05-07 13:01 | 39.54421 | 2.73348 | 38 ft | 16 kts | 238° |
| 2026-05-07 13:01 | 39.54365 | 2.73230 | 38 ft | 14 kts | 239° |
| 2026-05-07 13:01 | 39.54320 | 2.73160 | 38 ft | 9 kts | 197° |
| 2026-05-07 13:01 | 39.54277 | 2.73196 | 38 ft | 7 kts | 122° |
| 2026-05-07 13:02 | 39.54268 | 2.73268 | 38 ft | 9 kts | 91° |
| 2026-05-07 13:02 | 39.54268 | 2.73362 | 38 ft | 12 kts | 90° |
| 2026-05-07 13:02 | 39.54273 | 2.73473 | 38 ft | 13 kts | 73° |
| 2026-05-07 13:02 | 39.54291 | 2.73519 | 38 ft | 0 kts | 59° |
| 2026-05-07 13:03 | 39.54320 | 2.73580 | 38 ft | 33 kts | 59° |
| 2026-05-07 13:03 | 39.54564 | 2.74096 | 38 ft | 98 kts | 58° |
| 2026-05-07 13:03 | 39.55014 | 2.75050 | 41 ft | 148 kts | 59° |
| 2026-05-07 13:03 | 39.55567 | 2.76226 | 612 ft | 151 kts | 57° |
| 2026-05-07 13:04 | 39.56103 | 2.77394 | 1321 ft | 152 kts | 62° |
| 2026-05-07 13:04 | 39.56669 | 2.78645 | 1736 ft | 171 kts | 62° |
| 2026-05-07 13:04 | 39.57311 | 2.80064 | 2030 ft | 195 kts | 60° |
| 2026-05-07 13:04 | 39.58019 | 2.81626 | 2682 ft | 203 kts | 62° |
| 2026-05-07 13:05 | 39.58730 | 2.83189 | 3461 ft | 205 kts | 61° |
| 2026-05-07 13:05 | 39.59468 | 2.84803 | 4211 ft | 210 kts | 61° |
| 2026-05-07 13:05 | 39.60218 | 2.86445 | 4984 ft | 212 kts | 62° |
| 2026-05-07 13:05 | 39.60976 | 2.88108 | 5729 ft | 216 kts | 60° |
| 2026-05-07 13:06 | 39.61755 | 2.89820 | 6431 ft | 223 kts | 60° |
| 2026-05-07 13:06 | 39.62553 | 2.91586 | 7005 ft | 236 kts | 62° |
| 2026-05-07 13:06 | 39.63403 | 2.93527 | 7341 ft | 259 kts | 63° |
| 2026-05-07 13:06 | 39.64313 | 2.95633 | 7881 ft | 273 kts | 62° |
| 2026-05-07 13:07 | 39.65250 | 2.97807 | 8637 ft | 279 kts | 63° |
| 2026-05-07 13:07 | 39.66203 | 3.00019 | 9451 ft | 283 kts | 63° |
| 2026-05-07 13:07 | 39.67175 | 3.02268 | 10180 ft | 289 kts | 63° |
| 2026-05-07 13:07 | 39.68195 | 3.04626 | 10481 ft | 312 kts | 63° |
| 2026-05-07 13:08 | 39.69292 | 3.07170 | 10751 ft | 332 kts | 62° |
| 2026-05-07 13:08 | 39.70434 | 3.09819 | 11338 ft | 340 kts | 63° |
| 2026-05-07 13:08 | 39.71599 | 3.12520 | 12000 ft | 345 kts | 63° |
| 2026-05-07 13:08 | 39.72784 | 3.15263 | 12704 ft | 350 kts | 63° |
| 2026-05-07 13:09 | 39.73986 | 3.18040 | 13357 ft | 355 kts | 63° |
| 2026-05-07 13:09 | 39.75205 | 3.20862 | 14003 ft | 360 kts | 63° |
| 2026-05-07 13:09 | 39.76433 | 3.23713 | 14590 ft | 364 kts | 63° |
| 2026-05-07 13:09 | 39.77772 | 3.26537 | 15137 ft | 371 kts | 54° |
| 2026-05-07 13:10 | 39.79447 | 3.29124 | 15715 ft | 376 kts | 50° |
| 2026-05-07 13:10 | 39.81177 | 3.31702 | 16298 ft | 380 kts | 50° |
| 2026-05-07 13:10 | 39.82922 | 3.34314 | 16880 ft | 385 kts | 50° |
| 2026-05-07 13:10 | 39.84687 | 3.36961 | 17453 ft | 389 kts | 50° |
| 2026-05-07 13:11 | 39.86468 | 3.39638 | 18021 ft | 394 kts | 50° |
| 2026-05-07 13:11 | 39.88268 | 3.42348 | 18536 ft | 398 kts | 50° |
| 2026-05-07 13:11 | 39.90088 | 3.45090 | 19021 ft | 402 kts | 50° |
| 2026-05-07 13:11 | 39.91924 | 3.47858 | 19501 ft | 406 kts | 50° |
| 2026-05-07 13:12 | 39.93778 | 3.50655 | 19978 ft | 410 kts | 50° |
| 2026-05-07 13:12 | 39.95650 | 3.53482 | 20443 ft | 414 kts | 50° |
| 2026-05-07 13:12 | 39.97513 | 3.56302 | 20900 ft | 418 kts | 50° |
| 2026-05-07 13:12 | 39.99420 | 3.59190 | 21338 ft | 423 kts | 49° |
| 2026-05-07 13:13 | 40.01376 | 3.62150 | 21772 ft | 427 kts | 49° |
| 2026-05-07 13:13 | 40.03303 | 3.65058 | 22206 ft | 431 kts | 49° |
| 2026-05-07 13:13 | 40.05275 | 3.68029 | 22629 ft | 435 kts | 49° |
| 2026-05-07 13:13 | 40.07261 | 3.71033 | 23060 ft | 439 kts | 49° |
| 2026-05-07 13:14 | 40.09262 | 3.74071 | 23473 ft | 443 kts | 49° |
| 2026-05-07 13:14 | 40.11276 | 3.77141 | 23827 ft | 447 kts | 49° |
| 2026-05-07 13:14 | 40.13305 | 3.80237 | 24179 ft | 450 kts | 49° |
| 2026-05-07 13:14 | 40.15349 | 3.83355 | 24537 ft | 453 kts | 49° |
| 2026-05-07 13:15 | 40.17406 | 3.86497 | 24871 ft | 457 kts | 49° |
| 2026-05-07 13:15 | 40.19480 | 3.89663 | 25206 ft | 460 kts | 49° |
| 2026-05-07 13:15 | 40.21575 | 3.92862 | 25486 ft | 465 kts | 49° |
| 2026-05-07 13:15 | 40.23684 | 3.96086 | 25808 ft | 468 kts | 49° |
| 2026-05-07 13:16 | 40.25808 | 3.99337 | 26140 ft | 471 kts | 49° |
| 2026-05-07 13:16 | 40.27943 | 4.02611 | 26459 ft | 474 kts | 49° |
| 2026-05-07 13:16 | 40.30091 | 4.05909 | 26787 ft | 477 kts | 49° |
| 2026-05-07 13:16 | 40.32252 | 4.09230 | 27109 ft | 480 kts | 49° |
| 2026-05-07 13:17 | 40.34423 | 4.12576 | 27419 ft | 483 kts | 49° |
| 2026-05-07 13:17 | 40.36605 | 4.15943 | 27743 ft | 486 kts | 49° |
| 2026-05-07 13:17 | 40.38804 | 4.19335 | 28058 ft | 489 kts | 49° |
| 2026-05-07 13:17 | 40.41011 | 4.22741 | 28355 ft | 492 kts | 49° |
| 2026-05-07 13:18 | 40.43238 | 4.26184 | 28616 ft | 496 kts | 49° |
| 2026-05-07 13:18 | 40.45511 | 4.29611 | 28902 ft | 499 kts | 45° |
| 2026-05-07 13:18 | 40.47179 | 4.31689 | 29091 ft | 500 kts | 38° |
| 2026-05-07 13:18 | 40.49977 | 4.34398 | 29371 ft | 500 kts | 28° |
| 2026-05-07 13:19 | 40.53045 | 4.36528 | 29647 ft | 498 kts | 19° |
| 2026-05-07 13:19 | 40.56301 | 4.38042 | 29908 ft | 495 kts | 10° |
| 2026-05-07 13:19 | 40.60758 | 4.39232 | 30224 ft | 495 kts | 5° |
| 2026-05-07 13:19 | 40.64153 | 4.40042 | 30453 ft | 497 kts | 5° |
| 2026-05-07 13:20 | 40.66460 | 4.40593 | 30608 ft | 499 kts | 5° |
| 2026-05-07 13:20 | 40.69881 | 4.41413 | 30829 ft | 501 kts | 5° |
| 2026-05-07 13:20 | 40.73272 | 4.42225 | 31057 ft | 503 kts | 5° |
| 2026-05-07 13:20 | 40.76718 | 4.43052 | 31313 ft | 504 kts | 5° |
| 2026-05-07 13:21 | 40.80169 | 4.43881 | 31625 ft | 504 kts | 5° |
| 2026-05-07 13:21 | 40.83617 | 4.44709 | 31959 ft | 504 kts | 4° |
| 2026-05-07 13:21 | 40.87066 | 4.45539 | 32283 ft | 503 kts | 4° |
| 2026-05-07 13:21 | 40.90510 | 4.46368 | 32594 ft | 503 kts | 4° |
| 2026-05-07 13:22 | 40.93957 | 4.47202 | 32903 ft | 503 kts | 4° |
| 2026-05-07 13:22 | 40.97401 | 4.48041 | 33197 ft | 504 kts | 4° |
| 2026-05-07 13:22 | 41.00846 | 4.48883 | 33493 ft | 504 kts | 4° |
| 2026-05-07 13:22 | 41.04299 | 4.49727 | 33790 ft | 504 kts | 4° |
| 2026-05-07 13:23 | 41.07744 | 4.50564 | 34127 ft | 503 kts | 4° |
| 2026-05-07 13:23 | 41.11188 | 4.51398 | 34419 ft | 502 kts | 4° |
| 2026-05-07 13:23 | 41.14622 | 4.52232 | 34720 ft | 501 kts | 4° |
| 2026-05-07 13:23 | 41.18051 | 4.53068 | 35008 ft | 500 kts | 4° |
| 2026-05-07 13:24 | 41.21468 | 4.53905 | 35284 ft | 499 kts | 5° |
| 2026-05-07 13:24 | 41.24878 | 4.54743 | 35553 ft | 498 kts | 5° |
| 2026-05-07 13:24 | 41.28286 | 4.55581 | 35844 ft | 497 kts | 5° |
| 2026-05-07 13:24 | 41.31682 | 4.56412 | 35979 ft | 496 kts | 5° |
| 2026-05-07 13:25 | 41.38434 | 4.58062 | 36000 ft | 491 kts | 5° |
| 2026-05-07 13:25 | 41.45135 | 4.59708 | 36004 ft | 489 kts | 4° |
| 2026-05-07 13:26 | 41.51818 | 4.61339 | 36002 ft | 488 kts | 5° |
| 2026-05-07 13:26 | 41.58496 | 4.62991 | 36005 ft | 488 kts | 5° |
| 2026-05-07 13:27 | 41.65174 | 4.64650 | 36003 ft | 488 kts | 5° |
| 2026-05-07 13:27 | 41.71823 | 4.66524 | 36016 ft | 492 kts | 13° |
| 2026-05-07 13:28 | 41.78017 | 4.70425 | 36017 ft | 500 kts | 28° |
| 2026-05-07 13:28 | 41.83975 | 4.75225 | 36009 ft | 499 kts | 27° |
| 2026-05-07 13:29 | 41.89939 | 4.80020 | 36019 ft | 499 kts | 27° |
| 2026-05-07 13:29 | 41.95891 | 4.84814 | 36019 ft | 499 kts | 27° |
| 2026-05-07 13:30 | 42.01836 | 4.89614 | 36017 ft | 498 kts | 28° |
| 2026-05-07 13:30 | 42.07774 | 4.94427 | 36012 ft | 498 kts | 28° |
| 2026-05-07 13:31 | 42.13697 | 4.99241 | 36021 ft | 497 kts | 28° |
| 2026-05-07 13:31 | 42.19611 | 5.04062 | 36022 ft | 496 kts | 28° |
| 2026-05-07 13:32 | 42.25511 | 5.08873 | 36018 ft | 495 kts | 28° |
| 2026-05-07 13:32 | 42.31407 | 5.13681 | 36036 ft | 495 kts | 28° |
| 2026-05-07 13:33 | 42.37291 | 5.18503 | 36025 ft | 494 kts | 28° |
| 2026-05-07 13:33 | 42.43162 | 5.23331 | 36019 ft | 494 kts | 28° |
| 2026-05-07 13:34 | 42.51960 | 5.30573 | 36031 ft | 493 kts | 28° |
| 2026-05-07 13:35 | 42.57811 | 5.35399 | 36006 ft | 492 kts | 28° |
| 2026-05-07 13:35 | 42.63649 | 5.40239 | 36007 ft | 491 kts | 28° |
| 2026-05-07 13:36 | 42.69441 | 5.45046 | 36004 ft | 491 kts | 28° |
| 2026-05-07 13:36 | 42.75268 | 5.49882 | 36001 ft | 491 kts | 28° |
| 2026-05-07 13:37 | 42.81089 | 5.54736 | 35996 ft | 491 kts | 28° |
| 2026-05-07 13:37 | 42.86906 | 5.59601 | 35993 ft | 490 kts | 28° |
| 2026-05-07 13:38 | 42.92721 | 5.64465 | 36012 ft | 490 kts | 28° |
| 2026-05-07 13:38 | 42.98522 | 5.69337 | 36009 ft | 489 kts | 28° |
| 2026-05-07 13:39 | 43.04311 | 5.74201 | 35992 ft | 488 kts | 28° |
| 2026-05-07 13:39 | 43.10094 | 5.79072 | 36007 ft | 488 kts | 28° |
| 2026-05-07 13:40 | 43.15864 | 5.83946 | 36005 ft | 487 kts | 28° |
| 2026-05-07 13:40 | 43.21626 | 5.88824 | 35998 ft | 487 kts | 28° |
| 2026-05-07 13:41 | 43.27385 | 5.93699 | 35986 ft | 486 kts | 28° |
| 2026-05-07 13:41 | 43.33130 | 5.98576 | 36004 ft | 485 kts | 28° |
| 2026-05-07 13:42 | 43.39064 | 6.02841 | 35977 ft | 477 kts | 14° |
| 2026-05-07 13:42 | 43.45453 | 6.04663 | 35969 ft | 464 kts | 358° |
| 2026-05-07 13:43 | 43.51855 | 6.05291 | 35974 ft | 464 kts | 359° |
| 2026-05-07 13:43 | 43.58296 | 6.05935 | 35963 ft | 464 kts | 359° |
| 2026-05-07 13:44 | 43.64731 | 6.06586 | 35949 ft | 463 kts | 359° |
| 2026-05-07 13:44 | 43.71166 | 6.07242 | 35962 ft | 464 kts | 359° |
| 2026-05-07 13:45 | 43.77565 | 6.08581 | 35955 ft | 471 kts | 13° |
| 2026-05-07 13:45 | 43.83618 | 6.12238 | 35948 ft | 477 kts | 22° |
| 2026-05-07 13:46 | 43.89567 | 6.16300 | 35964 ft | 477 kts | 22° |
| 2026-05-07 13:46 | 43.95518 | 6.20357 | 35958 ft | 476 kts | 22° |
| 2026-05-07 13:47 | 44.01403 | 6.24375 | 35954 ft | 476 kts | 22° |
| 2026-05-07 13:47 | 44.07342 | 6.28461 | 35973 ft | 476 kts | 22° |
| 2026-05-07 13:48 | 44.13271 | 6.32546 | 35960 ft | 475 kts | 22° |
| 2026-05-07 13:48 | 44.19197 | 6.36623 | 35953 ft | 475 kts | 22° |
| 2026-05-07 13:49 | 44.25124 | 6.40711 | 35968 ft | 475 kts | 22° |
| 2026-05-07 13:49 | 44.31038 | 6.44804 | 35964 ft | 475 kts | 22° |
| 2026-05-07 13:50 | 44.36909 | 6.48875 | 35945 ft | 474 kts | 22° |
| 2026-05-07 13:50 | 44.42817 | 6.52985 | 35945 ft | 474 kts | 22° |
| 2026-05-07 13:51 | 44.48715 | 6.57096 | 35963 ft | 473 kts | 22° |
| 2026-05-07 13:51 | 44.54604 | 6.61209 | 35954 ft | 473 kts | 22° |
| 2026-05-07 13:52 | 44.60490 | 6.65328 | 35949 ft | 473 kts | 22° |
| 2026-05-07 13:52 | 44.66376 | 6.69445 | 35952 ft | 472 kts | 22° |
| 2026-05-07 13:53 | 44.72253 | 6.73573 | 35948 ft | 472 kts | 22° |
| 2026-05-07 13:53 | 44.78224 | 6.77321 | 35945 ft | 466 kts | 12° |
| 2026-05-07 13:54 | 44.84526 | 6.78702 | 35957 ft | 452 kts | 354° |
| 2026-05-07 13:54 | 44.90784 | 6.78330 | 35948 ft | 450 kts | 352° |
| 2026-05-07 13:55 | 44.97039 | 6.77920 | 35948 ft | 450 kts | 352° |
| 2026-05-07 13:55 | 45.03295 | 6.77517 | 35965 ft | 450 kts | 352° |
| 2026-05-07 13:56 | 45.09506 | 6.77109 | 35963 ft | 449 kts | 352° |
| 2026-05-07 13:56 | 45.15759 | 6.76694 | 35958 ft | 450 kts | 352° |
| 2026-05-07 13:57 | 45.22004 | 6.76269 | 35985 ft | 449 kts | 351° |
| 2026-05-07 13:57 | 45.28237 | 6.75850 | 35979 ft | 448 kts | 352° |
| 2026-05-07 13:58 | 45.34466 | 6.75443 | 35974 ft | 448 kts | 352° |
| 2026-05-07 13:58 | 45.40698 | 6.75036 | 35986 ft | 448 kts | 352° |
| 2026-05-07 13:59 | 45.46916 | 6.74615 | 35982 ft | 447 kts | 351° |
| 2026-05-07 13:59 | 45.53131 | 6.74182 | 35977 ft | 447 kts | 351° |
| 2026-05-07 14:00 | 45.59341 | 6.73756 | 35986 ft | 447 kts | 352° |
| 2026-05-07 14:00 | 45.65506 | 6.73346 | 35979 ft | 446 kts | 352° |
| 2026-05-07 14:01 | 45.71702 | 6.72928 | 35972 ft | 446 kts | 351° |
| 2026-05-07 14:01 | 45.77905 | 6.72493 | 35997 ft | 447 kts | 352° |
| 2026-05-07 14:02 | 45.84108 | 6.72055 | 35987 ft | 446 kts | 352° |
| 2026-05-07 14:02 | 45.90321 | 6.71626 | 35982 ft | 446 kts | 352° |
| 2026-05-07 14:03 | 45.96521 | 6.71211 | 35978 ft | 446 kts | 352° |
| 2026-05-07 14:03 | 46.02716 | 6.70799 | 35998 ft | 446 kts | 352° |
| 2026-05-07 14:04 | 46.08910 | 6.70376 | 35988 ft | 446 kts | 352° |
| 2026-05-07 14:04 | 46.14954 | 6.68998 | 35989 ft | 435 kts | 336° |
| 2026-05-07 14:05 | 46.20680 | 6.66218 | 36000 ft | 434 kts | 336° |
| 2026-05-07 14:05 | 46.26401 | 6.63429 | 35989 ft | 435 kts | 336° |
| 2026-05-07 14:06 | 46.32135 | 6.60642 | 35990 ft | 435 kts | 336° |
| 2026-05-07 14:06 | 46.37833 | 6.57860 | 35991 ft | 435 kts | 336° |
| 2026-05-07 14:07 | 46.43560 | 6.55055 | 36012 ft | 435 kts | 336° |
| 2026-05-07 14:07 | 46.49289 | 6.52247 | 35998 ft | 435 kts | 336° |
| 2026-05-07 14:08 | 46.55019 | 6.49431 | 36006 ft | 435 kts | 336° |
| 2026-05-07 14:08 | 46.60752 | 6.46607 | 36011 ft | 435 kts | 336° |
| 2026-05-07 14:09 | 46.66478 | 6.43778 | 36014 ft | 435 kts | 336° |
| 2026-05-07 14:09 | 46.72210 | 6.40934 | 36014 ft | 435 kts | 336° |
| 2026-05-07 14:10 | 46.77946 | 6.38095 | 36019 ft | 435 kts | 336° |
| 2026-05-07 14:10 | 46.83678 | 6.35248 | 36032 ft | 435 kts | 337° |
| 2026-05-07 14:11 | 46.88442 | 6.32882 | 36035 ft | 435 kts | 337° |
| 2026-05-07 14:11 | 46.94170 | 6.30030 | 36033 ft | 435 kts | 337° |
| 2026-05-07 14:12 | 46.99896 | 6.27174 | 36028 ft | 435 kts | 337° |
| 2026-05-07 14:12 | 47.05619 | 6.24294 | 36039 ft | 434 kts | 335° |
| 2026-05-07 14:13 | 47.11040 | 6.20543 | 36037 ft | 431 kts | 330° |
| 2026-05-07 14:13 | 47.16414 | 6.16651 | 36036 ft | 431 kts | 330° |
| 2026-05-07 14:14 | 47.21795 | 6.12766 | 36029 ft | 431 kts | 330° |
| 2026-05-07 14:14 | 47.27182 | 6.08871 | 36039 ft | 431 kts | 330° |
| 2026-05-07 14:15 | 47.32603 | 6.05089 | 36034 ft | 434 kts | 336° |
| 2026-05-07 14:15 | 47.38517 | 6.03364 | 36029 ft | 442 kts | 355° |
| 2026-05-07 14:16 | 47.44735 | 6.03487 | 36042 ft | 444 kts | 357° |
| 2026-05-07 14:16 | 47.50871 | 6.03636 | 36043 ft | 444 kts | 357° |
| 2026-05-07 14:17 | 47.57046 | 6.03766 | 36045 ft | 444 kts | 357° |
| 2026-05-07 14:17 | 47.63225 | 6.03895 | 36046 ft | 444 kts | 357° |
| 2026-05-07 14:18 | 47.69402 | 6.04035 | 36062 ft | 444 kts | 357° |
| 2026-05-07 14:18 | 47.75575 | 6.04175 | 36059 ft | 444 kts | 358° |
| 2026-05-07 14:19 | 47.81741 | 6.04361 | 36054 ft | 444 kts | 358° |
| 2026-05-07 14:19 | 47.87915 | 6.04569 | 36060 ft | 443 kts | 358° |
| 2026-05-07 14:20 | 47.94082 | 6.04767 | 36062 ft | 443 kts | 358° |
| 2026-05-07 14:20 | 48.00245 | 6.04960 | 36060 ft | 443 kts | 358° |
| 2026-05-07 14:21 | 48.06410 | 6.05157 | 36059 ft | 443 kts | 358° |
| 2026-05-07 14:21 | 48.12570 | 6.05350 | 36067 ft | 443 kts | 358° |
| 2026-05-07 14:22 | 48.18721 | 6.05541 | 36062 ft | 442 kts | 358° |
| 2026-05-07 14:22 | 48.24875 | 6.05729 | 36059 ft | 442 kts | 358° |
| 2026-05-07 14:23 | 48.31026 | 6.05919 | 36071 ft | 442 kts | 358° |
| 2026-05-07 14:23 | 48.37136 | 6.06155 | 36069 ft | 442 kts | 359° |
| 2026-05-07 14:24 | 48.43283 | 6.06463 | 36062 ft | 442 kts | 359° |
| 2026-05-07 14:24 | 48.49430 | 6.06784 | 36066 ft | 442 kts | 359° |
| 2026-05-07 14:25 | 48.55578 | 6.07085 | 36066 ft | 442 kts | 359° |
| 2026-05-07 14:25 | 48.61723 | 6.07369 | 36059 ft | 442 kts | 359° |
| 2026-05-07 14:26 | 48.67867 | 6.07661 | 36054 ft | 442 kts | 359° |
| 2026-05-07 14:26 | 48.74013 | 6.07955 | 36052 ft | 442 kts | 359° |
| 2026-05-07 14:27 | 48.80161 | 6.08238 | 36050 ft | 442 kts | 359° |
| 2026-05-07 14:27 | 48.86308 | 6.08522 | 36050 ft | 442 kts | 359° |
| 2026-05-07 14:28 | 48.92456 | 6.08817 | 36065 ft | 442 kts | 359° |
| 2026-05-07 14:28 | 48.98603 | 6.09109 | 36060 ft | 442 kts | 359° |
| 2026-05-07 14:29 | 49.04751 | 6.09400 | 36061 ft | 442 kts | 359° |
| 2026-05-07 14:29 | 49.10899 | 6.09707 | 36058 ft | 442 kts | 359° |
| 2026-05-07 14:30 | 49.17049 | 6.10012 | 36052 ft | 442 kts | 359° |
| 2026-05-07 14:30 | 49.23149 | 6.10307 | 36048 ft | 442 kts | 359° |
| 2026-05-07 14:31 | 49.29299 | 6.10604 | 36053 ft | 442 kts | 359° |
| 2026-05-07 14:31 | 49.35444 | 6.10906 | 36054 ft | 442 kts | 359° |
| 2026-05-07 14:32 | 49.41588 | 6.11208 | 36059 ft | 442 kts | 359° |
| 2026-05-07 14:32 | 49.47734 | 6.11507 | 36058 ft | 442 kts | 359° |
| 2026-05-07 14:33 | 49.53884 | 6.11777 | 36058 ft | 442 kts | 359° |
| 2026-05-07 14:33 | 49.60033 | 6.11991 | 36066 ft | 442 kts | 359° |
| 2026-05-07 14:34 | 49.66180 | 6.12203 | 36062 ft | 442 kts | 359° |
| 2026-05-07 14:34 | 49.72334 | 6.12430 | 36059 ft | 442 kts | 359° |
| 2026-05-07 14:35 | 49.78487 | 6.12670 | 36058 ft | 442 kts | 359° |
| 2026-05-07 14:35 | 49.84640 | 6.12917 | 36058 ft | 443 kts | 359° |
| 2026-05-07 14:35 | 49.87725 | 6.13029 | 35826 ft | 443 kts | 359° |
| 2026-05-07 14:36 | 49.90800 | 6.13087 | 35575 ft | 442 kts | 358° |
| 2026-05-07 14:36 | 49.93871 | 6.13100 | 35328 ft | 441 kts | 358° |
| 2026-05-07 14:36 | 49.96894 | 6.13090 | 35088 ft | 440 kts | 358° |
| 2026-05-07 14:36 | 49.99950 | 6.13075 | 34847 ft | 439 kts | 358° |
| 2026-05-07 14:37 | 50.03002 | 6.13066 | 34605 ft | 438 kts | 358° |
| 2026-05-07 14:37 | 50.09064 | 6.13087 | 34144 ft | 433 kts | 358° |
| 2026-05-07 14:37 | 50.12068 | 6.13109 | 33881 ft | 430 kts | 358° |
| 2026-05-07 14:38 | 50.15049 | 6.13134 | 33539 ft | 426 kts | 358° |
| 2026-05-07 14:38 | 50.17999 | 6.13159 | 32987 ft | 422 kts | 358° |
| 2026-05-07 14:38 | 50.20921 | 6.13181 | 32448 ft | 419 kts | 358° |
| 2026-05-07 14:38 | 50.23822 | 6.13198 | 31924 ft | 415 kts | 358° |
| 2026-05-07 14:39 | 50.26699 | 6.13338 | 31408 ft | 413 kts | 5° |
| 2026-05-07 14:39 | 50.29516 | 6.14184 | 30885 ft | 412 kts | 15° |
| 2026-05-07 14:39 | 50.32189 | 6.15785 | 30364 ft | 412 kts | 25° |
| 2026-05-07 14:39 | 50.34652 | 6.18067 | 29809 ft | 410 kts | 32° |
| 2026-05-07 14:40 | 50.37025 | 6.20509 | 29297 ft | 406 kts | 32° |
| 2026-05-07 14:40 | 50.39373 | 6.22922 | 28796 ft | 402 kts | 32° |
| 2026-05-07 14:40 | 50.41698 | 6.25314 | 28321 ft | 397 kts | 32° |
| 2026-05-07 14:40 | 50.43991 | 6.27676 | 27851 ft | 393 kts | 32° |
| 2026-05-07 14:41 | 50.46264 | 6.30019 | 27401 ft | 389 kts | 32° |
| 2026-05-07 14:41 | 50.48513 | 6.32337 | 26932 ft | 385 kts | 32° |
| 2026-05-07 14:41 | 50.50751 | 6.34606 | 26520 ft | 381 kts | 31° |
| 2026-05-07 14:41 | 50.53006 | 6.36746 | 26096 ft | 377 kts | 29° |
| 2026-05-07 14:42 | 50.55262 | 6.38793 | 25671 ft | 373 kts | 28° |
| 2026-05-07 14:42 | 50.57513 | 6.40807 | 25238 ft | 371 kts | 28° |
| 2026-05-07 14:42 | 50.59745 | 6.42810 | 24799 ft | 368 kts | 28° |
| 2026-05-07 14:42 | 50.61963 | 6.44818 | 24365 ft | 366 kts | 29° |
| 2026-05-07 14:43 | 50.64161 | 6.46831 | 23923 ft | 365 kts | 29° |
| 2026-05-07 14:43 | 50.66346 | 6.48852 | 23438 ft | 364 kts | 29° |
| 2026-05-07 14:43 | 50.68521 | 6.50868 | 22960 ft | 362 kts | 29° |
| 2026-05-07 14:43 | 50.70684 | 6.52874 | 22517 ft | 359 kts | 29° |
| 2026-05-07 14:44 | 50.72827 | 6.54864 | 22075 ft | 357 kts | 29° |
| 2026-05-07 14:44 | 50.74957 | 6.56845 | 21630 ft | 354 kts | 29° |
| 2026-05-07 14:44 | 50.77076 | 6.58819 | 21186 ft | 352 kts | 29° |
| 2026-05-07 14:44 | 50.79184 | 6.60783 | 20748 ft | 351 kts | 29° |
| 2026-05-07 14:45 | 50.81319 | 6.62633 | 20313 ft | 349 kts | 22° |
| 2026-05-07 14:45 | 50.83606 | 6.63859 | 19882 ft | 346 kts | 11° |
| 2026-05-07 14:45 | 50.85976 | 6.64453 | 19452 ft | 344 kts | 6° |
| 2026-05-07 14:45 | 50.88349 | 6.64949 | 19025 ft | 344 kts | 6° |
| 2026-05-07 14:46 | 50.90723 | 6.65455 | 18599 ft | 343 kts | 6° |
| 2026-05-07 14:46 | 50.93086 | 6.65965 | 18156 ft | 343 kts | 6° |
| 2026-05-07 14:46 | 50.95446 | 6.66474 | 17715 ft | 341 kts | 6° |
| 2026-05-07 14:46 | 50.97790 | 6.66973 | 17300 ft | 339 kts | 6° |
| 2026-05-07 14:47 | 51.00121 | 6.67470 | 16886 ft | 338 kts | 6° |
| 2026-05-07 14:47 | 51.02420 | 6.67869 | 16476 ft | 336 kts | 0° |
| 2026-05-07 14:47 | 51.04722 | 6.67737 | 16072 ft | 334 kts | 355° |
| 2026-05-07 14:47 | 51.07033 | 6.67541 | 15665 ft | 333 kts | 355° |
| 2026-05-07 14:48 | 51.09348 | 6.67327 | 15259 ft | 332 kts | 352° |
| 2026-05-07 14:48 | 51.11597 | 6.66563 | 14878 ft | 330 kts | 339° |
| 2026-05-07 14:48 | 51.13710 | 6.65217 | 14567 ft | 325 kts | 336° |
| 2026-05-07 14:48 | 51.15798 | 6.63849 | 14250 ft | 324 kts | 336° |
| 2026-05-07 14:49 | 51.17885 | 6.62490 | 13925 ft | 325 kts | 336° |
| 2026-05-07 14:49 | 51.19977 | 6.61132 | 13580 ft | 325 kts | 336° |
| 2026-05-07 14:49 | 51.22078 | 6.59762 | 13264 ft | 326 kts | 336° |
| 2026-05-07 14:49 | 51.24136 | 6.58417 | 13109 ft | 311 kts | 336° |
| 2026-05-07 14:50 | 51.26073 | 6.57151 | 12973 ft | 290 kts | 336° |
| 2026-05-07 14:50 | 51.27881 | 6.55972 | 12785 ft | 273 kts | 336° |
| 2026-05-07 14:50 | 51.29572 | 6.54722 | 12400 ft | 263 kts | 328° |
| 2026-05-07 14:50 | 51.31166 | 6.53288 | 12159 ft | 262 kts | 329° |
| 2026-05-07 14:51 | 51.32748 | 6.51851 | 11776 ft | 262 kts | 323° |
| 2026-05-07 14:51 | 51.33991 | 6.49765 | 11248 ft | 258 kts | 298° |
| 2026-05-07 14:51 | 51.34563 | 6.47105 | 10760 ft | 252 kts | 274° |
| 2026-05-07 14:51 | 51.34402 | 6.44345 | 10228 ft | 251 kts | 251° |
| 2026-05-07 14:52 | 51.33542 | 6.41944 | 9713 ft | 249 kts | 226° |
| 2026-05-07 14:52 | 51.32167 | 6.40347 | 9405 ft | 244 kts | 204° |
| 2026-05-07 14:52 | 51.30590 | 6.39400 | 9132 ft | 241 kts | 200° |
| 2026-05-07 14:52 | 51.29028 | 6.38495 | 8867 ft | 237 kts | 201° |
| 2026-05-07 14:53 | 51.27490 | 6.37605 | 8598 ft | 233 kts | 201° |
| 2026-05-07 14:53 | 51.25977 | 6.36729 | 8334 ft | 230 kts | 201° |
| 2026-05-07 14:53 | 51.24467 | 6.35853 | 8080 ft | 233 kts | 201° |
| 2026-05-07 14:53 | 51.22924 | 6.34957 | 7800 ft | 239 kts | 201° |
| 2026-05-07 14:54 | 51.21344 | 6.34040 | 7509 ft | 243 kts | 201° |
| 2026-05-07 14:54 | 51.19734 | 6.33110 | 7209 ft | 248 kts | 201° |
| 2026-05-07 14:54 | 51.18104 | 6.32172 | 6922 ft | 251 kts | 199° |
| 2026-05-07 14:54 | 51.16459 | 6.31223 | 6793 ft | 253 kts | 201° |
| 2026-05-07 14:55 | 51.14786 | 6.30383 | 6624 ft | 250 kts | 191° |
| 2026-05-07 14:55 | 51.13073 | 6.30280 | 6226 ft | 246 kts | 171° |
| 2026-05-07 14:55 | 51.11494 | 6.31208 | 5906 ft | 240 kts | 144° |
| 2026-05-07 14:55 | 51.10380 | 6.33081 | 5648 ft | 231 kts | 117° |
| 2026-05-07 14:56 | 51.09928 | 6.35471 | 5402 ft | 224 kts | 91° |
| 2026-05-07 14:56 | 51.10171 | 6.37863 | 5140 ft | 216 kts | 64° |
| 2026-05-07 14:56 | 51.10948 | 6.39812 | 4932 ft | 210 kts | 50° |
| 2026-05-07 14:56 | 51.11847 | 6.41660 | 4601 ft | 214 kts | 50° |
| 2026-05-07 14:57 | 51.12789 | 6.43598 | 4234 ft | 224 kts | 51° |
| 2026-05-07 14:57 | 51.13754 | 6.45598 | 3864 ft | 230 kts | 50° |
| 2026-05-07 14:57 | 51.14705 | 6.47570 | 3786 ft | 225 kts | 51° |
| 2026-05-07 14:57 | 51.15652 | 6.49533 | 3703 ft | 222 kts | 51° |
| 2026-05-07 14:58 | 51.16592 | 6.51489 | 3624 ft | 222 kts | 51° |
| 2026-05-07 14:58 | 51.17536 | 6.53446 | 3512 ft | 222 kts | 51° |
| 2026-05-07 14:58 | 51.18475 | 6.55396 | 3260 ft | 221 kts | 51° |
| 2026-05-07 14:58 | 51.19403 | 6.57328 | 2977 ft | 219 kts | 50° |
| 2026-05-07 14:59 | 51.20321 | 6.59239 | 2684 ft | 214 kts | 50° |
| 2026-05-07 14:59 | 51.21220 | 6.61114 | 2391 ft | 210 kts | 51° |
| 2026-05-07 14:59 | 51.22090 | 6.62925 | 2109 ft | 200 kts | 51° |
| 2026-05-07 14:59 | 51.22895 | 6.64606 | 1869 ft | 181 kts | 50° |
| 2026-05-07 15:00 | 51.23614 | 6.66108 | 1650 ft | 160 kts | 50° |
| 2026-05-07 15:00 | 51.24252 | 6.67443 | 1423 ft | 144 kts | 52° |
| 2026-05-07 15:00 | 51.24646 | 6.68266 | 1281 ft | 139 kts | 49° |
| 2026-05-07 15:00 | 51.25228 | 6.69485 | 1083 ft | 136 kts | 50° |
| 2026-05-07 15:01 | 51.25797 | 6.70680 | 913 ft | 135 kts | 51° |
| 2026-05-07 15:01 | 51.26368 | 6.71867 | 720 ft | 134 kts | 51° |
| 2026-05-07 15:01 | 51.26932 | 6.73048 | 539 ft | 134 kts | 51° |
| 2026-05-07 15:01 | 51.27504 | 6.74234 | 361 ft | 134 kts | 52° |
| 2026-05-07 15:02 | 51.28070 | 6.75425 | 201 ft | 135 kts | 52° |
| 2026-05-07 15:02 | 51.28614 | 6.76573 | 117 ft | 118 kts | 51° |
| 2026-05-07 15:02 | 51.29006 | 6.77391 | 114 ft | 68 kts | 52° |
| 2026-05-07 15:02 | 51.29198 | 6.77794 | 120 ft | 34 kts | 53° |
| 2026-05-07 15:03 | 51.29297 | 6.78028 | 116 ft | 19 kts | 75° |
| 2026-05-07 15:03 | 51.29251 | 6.78195 | 117 ft | 16 kts | 147° |
| 2026-05-07 15:03 | 51.29183 | 6.78205 | 118 ft | 9 kts | 201° |
| 2026-05-07 15:03 | 51.29140 | 6.78146 | 117 ft | 8 kts | 229° |
| 2026-05-07 15:04 | 51.29109 | 6.78082 | 116 ft | 7 kts | 235° |
| 2026-05-07 15:04 | 51.29084 | 6.78025 | 117 ft | 6 kts | 233° |
| 2026-05-07 15:04 | 51.29061 | 6.77976 | 116 ft | 5 kts | 233° |
| 2026-05-07 15:04 | 51.29041 | 6.77932 | 116 ft | 5 kts | 233° |
| 2026-05-07 15:05 | 51.29015 | 6.77878 | 117 ft | 7 kts | 233° |
| 2026-05-07 15:05 | 51.28978 | 6.77800 | 116 ft | 11 kts | 232° |
| 2026-05-07 15:05 | 51.28923 | 6.77683 | 114 ft | 16 kts | 233° |
| 2026-05-07 15:05 | 51.28852 | 6.77536 | 116 ft | 16 kts | 232° |
| 2026-05-07 15:06 | 51.28787 | 6.77399 | 117 ft | 15 kts | 232° |
| 2026-05-07 15:06 | 51.28725 | 6.77270 | 115 ft | 15 kts | 232° |
| 2026-05-07 15:06 | 51.28662 | 6.77137 | 116 ft | 15 kts | 233° |
| 2026-05-07 15:06 | 51.28598 | 6.77002 | 114 ft | 15 kts | 233° |
| 2026-05-07 15:07 | 51.28533 | 6.76865 | 116 ft | 15 kts | 232° |
| 2026-05-07 15:07 | 51.28470 | 6.76735 | 116 ft | 14 kts | 232° |
| 2026-05-07 15:07 | 51.28414 | 6.76617 | 115 ft | 13 kts | 232° |
| 2026-05-07 15:07 | 51.28362 | 6.76508 | 113 ft | 12 kts | 231° |
| 2026-05-07 15:08 | 51.28295 | 6.76500 | 117 ft | 10 kts | 167° |
| 2026-05-07 15:08 | 51.28243 | 6.76452 | 115 ft | 8 kts | 218° |
| 2026-05-07 15:08 | 51.28191 | 6.76431 | 118 ft | 7 kts | 187° |
| 2026-05-07 15:08 | 51.28141 | 6.76421 | 118 ft | 7 kts | 187° |
| 2026-05-07 15:09 | 51.28114 | 6.76458 | 116 ft | 5 kts | 95° |
| 2026-05-07 15:09 | 51.28111 | 6.76510 | 118 ft | 4 kts | 96° |
| 2026-05-07 15:09 | 51.28109 | 6.76543 | 117 ft | 2 kts | 96° |
| 2026-05-07 15:09 | 51.28108 | 6.76548 | 118 ft | 0 kts | 96° |